EGSS Airport Information

Runway Information
Runway 04 Length 10003 ft width 151 ft Elevation 324 ft Threshold N/A Heading 44
Runway 22 Length 10003 ft Width 151 ft Elevation 348 ft Threshold N/A Heading 224
Airport Frequencies
Type APP Name Essex Rada Frequency 120.625 MHZ
Type ATIS Name ATIS Frequency 127.175 MHZ
Type CLD Name CLNC DEL Frequency 121.95 MHZ
Type DIR Name DIRECTOR Frequency 136.2 MHZ
Type GND Name GND Frequency 121.725 MHZ
Type TWR Name TWR Frequency 123.8 MHZ
Type RDR Name Director Frequency 136.2 MHZ
Airport Navaids
Type VOR-DME Name Barkway Frequency 116250 KHZ
Type NDB Name Stansted Frequency 429 KHZ
Airport Weather Information & NOTAM
ADDS - METARS form results

(1729 UTC 07 December 2022)
Data provider http://aviationweather.gov/metar/data/
 
METAR text: EGSS 071720Z AUTO 29005KT 9999 NCD 00/M00 Q1018
Conditions at: EGSS (STANSTED AIRPORT, GB) observed 1720 UTC 07 December 2022
Temperature: 0.0°C (32°F)
Dewpoint: 0.0°C (32°F) [RH = 100%]
Pressure (altimeter): 30.06 inches Hg (1018.0 mb)
Winds: from the WNW (290 degrees) at 6 MPH (5 knots; 2.6 m/s)
Visibility: 6 or more miles (10+ km)
Ceiling: at least 12,000 feet AGL
Clouds: sky clear below 12,000 feet AGL
Weather: no significant weather observed at this time

METAR text: EGSS 071650Z AUTO 30005KT 9999 NCD 01/M00 Q1018
Conditions at: EGSS (STANSTED AIRPORT, GB) observed 1650 UTC 07 December 2022
Temperature: 1.0°C (34°F)
Dewpoint: 0.0°C (32°F) [RH = 93%]
Pressure (altimeter): 30.06 inches Hg (1018.0 mb)
Winds: from the WNW (300 degrees) at 6 MPH (5 knots; 2.6 m/s)
Visibility: 6 or more miles (10+ km)
Ceiling: at least 12,000 feet AGL
Clouds: sky clear below 12,000 feet AGL
Weather: no significant weather observed at this time

Forecast for: EGSS (STANSTED AIRPORT, GB)
Text: TAF EGSS 071702Z 0718/0824 33008KT 9999 FEW020
Forecast period: 1800 UTC 07 December 2022 to 0000 UTC 09 December 2022
Forecast type: FROM: standard forecast or significant change
Winds: from the NNW (330 degrees) at 9 MPH (8 knots; 4.1 m/s)
Visibility: 6 or more miles (10+ km)
Ceiling: at least 12,000 feet AGL
Clouds: few clouds at 2000 feet AGL
Weather: no significant weather forecast for this period
Text: PROB30 0804/0809 8000 BKN009
Forecast period: 0400 to 0900 UTC 08 December 2022
Forecast type: PROBABLE: 30 percent likelihood of the following during this time
Visibility: 5 miles (8 km)
Ceiling: 900 feet AGL
Clouds: broken clouds at 900 feet AGL
Weather: no significant weather forecast for this period